This is the latest recevied weather packets stored in our database for station/object I1SXT-13. If no packets are shown the sender has not sent any weather packets the latest 10 day(s).
| Time | Temp. | Humidity | Pressure | Rain* | Wind** | Luminosity | Snow |
|---|---|---|---|---|---|---|---|
| 1778147966 | 18.89° C | 74% | 1014.8 hPa | 0 mm | - | - | - |
| 1778147669 | 18.33° C | 72% | 1015.5 hPa | 0 mm | - | - | - |
| 1778147365 | 19.44° C | 72% | 1014.8 hPa | 0 mm | - | - | - |
| 1778147068 | 18.33° C | 70% | 1014.9 hPa | 0 mm | - | - | - |
| 1778146764 | 18.33° C | 72% | 1014.8 hPa | 0 mm | - | - | - |
| 1778146466 | 18.33° C | 73% | 1014.8 hPa | 0 mm | - | - | - |
| 1778146169 | 18.33° C | 71% | 1015.1 hPa | 0 mm | - | - | - |
| 1778145865 | 18.33° C | 72% | 1014.8 hPa | 0 mm | - | - | - |
| 1778145568 | 18.33° C | 74% | 1014.9 hPa | 0 mm | - | - | - |
| 1778145264 | 18.33° C | 72% | 1014.7 hPa | 0 mm | - | - | - |
| 1778144967 | 18.33° C | 71% | 1014.7 hPa | 0 mm | - | - | - |
| 1778144670 | 18.33° C | 74% | 1015.1 hPa | 0 mm | - | - | - |
| 1778144366 | 17.78° C | 75% | 1015 hPa | 0 mm | - | - | - |
| 1778144068 | 18.33° C | 73% | 1014.7 hPa | 0 mm | - | - | - |
| 1778143764 | 18.33° C | 72% | 1014.6 hPa | 0 mm | - | - | - |
| 1778143467 | 18.33° C | 72% | 1014.6 hPa | 0 mm | - | - | - |
| 1778143170 | 17.78° C | 75% | 1014.7 hPa | 0 mm | - | - | - |
| 1778142866 | 17.78° C | 72% | 1014.7 hPa | 0 mm | - | - | - |
| 1778142568 | 17.78° C | 72% | 1014.5 hPa | 0 mm | - | - | - |
| 1778142265 | 17.78° C | 72% | 1014.5 hPa | 0 mm | - | - | - |
| 1778141967 | 17.78° C | 73% | 1014.7 hPa | 0 mm | - | - | - |
| 1778141664 | 17.78° C | 75% | 1014.3 hPa | 0 mm | - | - | - |
| 1778141366 | 17.78° C | 74% | 1014.4 hPa | 0 mm | - | - | - |
| 1778141069 | 17.78° C | 73% | 1014.6 hPa | 0 mm | - | - | - |
| 1778140765 | 17.78° C | 72% | 1014.6 hPa | 0 mm | - | - | - |
* Rain since midnight (hover to see other rain measurements)
** Current wind speed in m/s (hover to see current wind gust speed)